Meteo Giornale » Osservazioni meteo Stati Uniti (USA) » Shelton Sanderson Fld
ore: 05:53 - Osservazioni Meteo Shelton Sanderson Fld
Lat. 47° 14' N Lon. 123° 8' W Alt. 82 metri s.l.m.
15 °C
Coperto
Temp. 24 Ore
7 °C
28 °C
Sud-Ovest
16.7 Km/h
Dew point 13 °C
Umidità 87 %
Visibilità 10 Km
Il sole sorge alle ore 06:32
Il sole tramonta alle ore 19:52
| Data e Ora | Cielo e Fenomeni | T °C | DP °C | Um. % | Pres. hPa | Vis. km | Vento km/h | |
|---|---|---|---|---|---|---|---|---|
| Oggi h: 05:53 | Coperto | 15 | 13 | 87 | 1009 | 10 | SO 16.7 | |
| Oggi h: 05:45 | Coperto | 15 | 13 | 87 | 1009 | 10 | SO 20.3 | |
| Oggi h: 04:53 | Coperto | 14 | 13 | 93 | 1009 | 10 | SO 20.3 | |
| Oggi h: 04:29 | Coperto | 14 | 13 | 93 | 1009 | 10 | O/SO 24 | |
| Oggi h: 04:17 | Coperto | 14 | 13 | 93 | 1009 | 10 | O/SO 20.3 | |
| Oggi h: 03:53 | Coperto | 14 | 13 | 93 | 1009 | 14 | SO 18.5 | |
| Oggi h: 03:48 | Coperto | 14 | 13 | 93 | 1009 | 13 | O/SO 16.7 | |
| Oggi h: 02:53 | Coperto | 14 | 13 | 93 | 1008 | 10 | O/SO 20.3 | |
| Oggi h: 02:43 | Molto Nuvoloso | 14 | 13 | 93 | 1008 | 10 | O/SO 22.2 | |
| Oggi h: 02:32 | Nuvoloso | 14 | 13 | 93 | 1008 | 10 | O 11.1 | |
| Oggi h: 01:53 | Sereno | 14 | 13 | 93 | 1008 | 10 | O/SO 14.8 | |
| Oggi h: 00:53 | Sereno | 13 | 12 | 93 | 1008 | 10 | O/NO 7.4 | |
| Ieri h: 23:53 | Sereno | 12 | 11 | 93 | 1008 | 10 | O/SO 7.4 | |
| Ieri h: 22:53 | Sereno | 14 | 11 | 82 | 1008 | 10 | N 0 | |
| Ieri h: 21:53 | Sereno | 16 | 11 | 72 | 1008 | 10 | N 0 | |
| Ieri h: 20:53 | Sereno | 19 | 12 | 63 | 1007 | 10 | N 5.5 | |
| Ieri h: 19:53 | Sereno | 22 | 11 | 49 | 1007 | 10 | N 5.5 | |
| Ieri h: 18:53 | Sereno | 25 | 11 | 41 | 1007 | 10 | E 11.1 | |
| Ieri h: 17:53 | Sereno | 27 | 9 | 32 | 1007 | 10 | N 7.4 | |
| Ieri h: 16:53 | Sereno | 28 | 10 | 32 | 1007 | 10 | N 13 | |
| Ieri h: 15:53 | Sereno | 27 | 11 | 36 | 1007 | 10 | N 16.7 | |
| Ieri h: 14:53 | Sereno | 26 | 11 | 39 | 1008 | 10 | NO 13 | |
| Ieri h: 13:53 | Sereno | 25 | 11 | 41 | 1009 | 10 | N 7.4 | |
| Ieri h: 12:53 | Sereno | 24 | 10 | 41 | 1010 | 10 | N 7.4 | |
| Ieri h: 11:53 | Sereno | 22 | 11 | 49 | 1011 | 10 | E 13 | |
| Ieri h: 10:53 | Sereno | 21 | 11 | 52 | 1011 | 10 | NE 9.3 | |
| Ieri h: 09:53 | Sereno | 18 | 11 | 63 | 1012 | 10 | E 9.3 | |
| Ieri h: 08:53 | Sereno | 15 | 12 | 82 | 1012 | 10 | N 5.5 | |
| Ieri h: 07:53 | Sereno | 11 | 9 | 87 | 1013 | 10 | N 0 | |
| Ieri h: 06:53 | Sereno | 7 | 7 | 100 | 1013 | 10 | N 0 | |



